• Join FlightAware (Why Join?)
  • Login
  • US Flag 
06:54AM EDT


 

Airport Tracker/Info


-or-


 

Live Flight TrackerFlight Track Log ✈ TAM8042 ✈ 17-May-2013 ✈ SBBR / BSB - KMIA

Flight Track Log - Related Links

Times and Time Zones

All times are in EDT time to prevent confusion due to time zone crossing. See the TAM8042 flight status page for this flight to view local times or setup timezone preferences in your user account.

Time Position Orientation Groundspeed Altitude Reporting Facility
EDT Latitude Longitude Course Direction KTS MPH feet Rate Location/Type
10:58PM -15.9070 -47.8580 86° East 140 161 6,800  Level FlightAware
10:59PM -15.9170 -47.8300 110° East 238 274 7,300 1,800 Climbing FlightAware
10:59PM -15.8980 -47.8060 51° Northeast 245 282 8,500 2,100 Climbing FlightAware
11:00PM -15.8870 -47.8020 19° North 279 321 8,700 300 Climbing FlightAware
11:00PM -15.8560 -47.7940 14° North 279 321 8,700 2,700 Level FlightAware
11:01PM -15.7880 -47.7880 North 322 371 11,900 2,400 Climbing FlightAware
11:02PM -15.6890 -47.7750 North 353 406 13,200 1,560 Climbing FlightAware
11:03PM -15.5990 -47.7630 North 388 447 15,000 3,000 Climbing FlightAware
11:03PM -15.5490 -47.7790 343° North 410 472 17,000 3,900 Climbing FlightAware
11:03PM -15.5250 -47.8030 316° Northwest 422 486 17,600 2,820 Climbing FlightAware
11:04PM -15.4880 -47.8790 297° West 424 488 19,600 2,640 Climbing FlightAware
11:05PM -15.4580 -47.9450 295° West 432 497 20,900 2,100 Climbing FlightAware
11:05PM -15.4170 -48.0330 296° West 441 507 22,600 1,920 Climbing FlightAware
11:06PM -15.3490 -48.0970 318° Northwest 450 518 24,000 1,800 Climbing FlightAware
11:07PM -15.2760 -48.1430 329° Northwest 459 528 25,200 1,860 Climbing FlightAware
11:08PM -15.2030 -48.1900 328° Northwest 466 536 26,500 1,800 Climbing FlightAware
11:08PM -15.1180 -48.2440 328° Northwest 473 544 27,800 1,740 Climbing FlightAware
11:09PM -15.0450 -48.2900 329° Northwest 474 545 29,000 1,920 Climbing FlightAware
11:10PM -14.9690 -48.3370 329° Northwest 470 541 30,400 1,800 Climbing FlightAware
11:10PM -14.8840 -48.3900 329° Northwest 474 545 31,600 660 Climbing FlightAware
11:12PM -14.6910 -48.4580 341° North 488 562 32,000 180 Climbing FlightAware
11:12PM -14.6090 -48.4570 North 487 560 32,000 420 Level FlightAware
11:13PM -14.5120 -48.4380 11° North 480 552 32,500 660 Climbing FlightAware
11:14PM -14.3980 -48.4280 North 476 548 33,100 540 Climbing FlightAware
11:15PM -14.2700 -48.4620 346° North 474 545 33,600 240 Climbing FlightAware
11:16PM -14.1810 -48.4880 344° North 474 545 33,600  Level FlightAware
11:17PM -14.1090 -48.5090 344° North 474 545 33,600 960 Level FlightAware
11:18PM -13.9860 -48.5850 329° Northwest 476 548 35,200 900 Climbing FlightAware
11:18PM -13.8990 -48.6210 338° Northwest 476 548 35,200 480 Level FlightAware
11:19PM -13.7940 -48.6620 339° North 480 552 36,000 600 Climbing FlightAware
11:20PM -13.7240 -48.6910 338° Northwest 480 552 36,000  Level FlightAware
11:21PM -13.6230 -48.7620 326° Northwest 483 556 36,000  Level FlightAware
11:21PM -13.5600 -48.8050 326° Northwest 483 556 36,000  Level FlightAware
11:22PM -13.4970 -48.8490 326° Northwest 483 556 36,000  Level FlightAware
11:23PM -13.4180 -48.9040 326° Northwest 483 556 36,000  Level FlightAware
11:23PM -13.3550 -48.9470 326° Northwest 483 556 36,000  Level FlightAware
11:24PM -13.2920 -48.9910 326° Northwest 483 556 36,000  Level FlightAware
11:25PM -13.2290 -49.0350 326° Northwest 483 556 36,000  Level FlightAware
11:25PM -13.1660 -49.0780 326° Northwest 483 556 36,000  Level FlightAware
11:26PM -13.0870 -49.1330 326° Northwest 483 556 36,000  Level FlightAware
11:27PM -13.0240 -49.1760 326° Northwest 483 556 36,000  Level FlightAware
11:28PM -12.9610 -49.2200 326° Northwest 483 556 36,000  Level FlightAware
11:28PM -12.8980 -49.2630 326° Northwest 483 556 36,000  Level FlightAware
11:29PM -12.8350 -49.3070 326° Northwest 483 556 36,000  Level FlightAware
11:30PM -12.7560 -49.3620 326° Northwest 483 556 36,000  Level FlightAware
11:32PM -12.5855 -49.4978 322° Northwest  Level Estimated
11:33PM -12.4861 -49.5769 322° Northwest  Level Estimated
11:34PM -12.3868 -49.6559 322° Northwest  Level Estimated
11:35PM -12.2874 -49.7348 322° Northwest  Level Estimated
11:36PM -12.1880 -49.8137 322° Northwest  Level Estimated
11:36PM -11.9030 -49.8870 322° Northwest 483 556 36,000  Level FlightAware
11:36PM -11.8200 -49.9410 328° Northwest 483 556 36,000  Level FlightAware
11:37PM -11.7430 -49.9910 328° Northwest 483 556 36,000  Level FlightAware
11:38PM -11.6790 -50.0340 327° Northwest 483 556 36,000  Level FlightAware
11:39PM -11.7590 -49.9810 147° Southeast 483 556 36,000  Level FlightAware
11:39PM -11.6790 -50.0340 327° Northwest 483 556 36,000  Level FlightAware
11:40PM -11.6150 -50.0760 327° Northwest 483 556 36,000  Level FlightAware
11:41PM -11.5510 -50.1180 327° Northwest 483 556 36,000  Level FlightAware
11:41PM -11.8030 -49.9510 147° Southeast 36,000  Level FlightAware
11:42PM -11.2270 -50.3230 328° Northwest 483 556 36,000  Level FlightAware
11:42PM -11.1580 -50.3680 327° Northwest 483 556 36,000  Level FlightAware
11:44PM -11.0650 -50.4280 328° Northwest 484 557 36,000  Level FlightAware
11:45PM -11.0010 -50.4700 327° Northwest 484 557 36,000  Level FlightAware
11:46PM -11.1070 -50.4000 147° Southeast 36,000  Level FlightAware
11:48PM -10.9199 -50.5481 322° Northwest  Level Estimated
11:49PM -10.8205 -50.6266 322° Northwest  Level Estimated
11:50PM -10.7211 -50.7051 322° Northwest  Level Estimated
11:51PM -10.6217 -50.7835 322° Northwest  Level Estimated
11:52PM -10.5222 -50.8619 322° Northwest  Level Estimated
11:53PM -10.4228 -50.9403 322° Northwest  Level Estimated
11:54PM -10.3233 -51.0186 322° Northwest  Level Estimated
11:55PM -10.2238 -51.0968 322° Northwest  Level Estimated
11:56PM -10.1243 -51.1750 322° Northwest  Level Estimated
11:57PM -10.0247 -51.2531 322° Northwest  Level Estimated
11:58PM -9.9252 -51.3312 322° Northwest  Level Estimated
11:59PM -9.8256 -51.4092 322° Northwest  Level Estimated
12:00AM -9.7260 -51.4873 322° Northwest  Level Estimated
12:01AM -9.6264 -51.5652 322° Northwest  Level Estimated
12:02AM -9.5268 -51.6431 322° Northwest  Level Estimated
12:03AM -9.4271 -51.7210 322° Northwest  Level Estimated
12:04AM -9.3275 -51.7988 322° Northwest  Level Estimated
12:05AM -9.2278 -51.8765 322° Northwest  Level Estimated
12:06AM -9.1281 -51.9543 322° Northwest  Level Estimated
12:07AM -9.0284 -52.0319 322° Northwest  Level Estimated
12:08AM -8.9287 -52.1096 322° Northwest  Level Estimated
12:09AM -8.8289 -52.1872 322° Northwest  Level Estimated
12:10AM -8.7292 -52.2647 322° Northwest  Level Estimated
12:11AM -8.6294 -52.3422 322° Northwest  Level Estimated
12:12AM -8.5296 -52.4197 322° Northwest  Level Estimated
12:13AM -8.4335 -52.4943 322° Northwest  Level Estimated
12:14AM -8.3375 -52.5687 323° Northwest  Level Estimated
12:15AM -8.2414 -52.6432 323° Northwest  Level Estimated
12:16AM -8.1452 -52.7176 323° Northwest  Level Estimated
12:17AM -8.0491 -52.7920 323° Northwest  Level Estimated
12:18AM -7.9530 -52.8664 323° Northwest  Level Estimated
12:19AM -7.8568 -52.9407 323° Northwest  Level Estimated
12:20AM -7.7606 -53.0150 323° Northwest  Level Estimated
12:21AM -7.6645 -53.0892 323° Northwest  Level Estimated
12:22AM -7.5683 -53.1635 323° Northwest  Level Estimated
12:23AM -7.4721 -53.2377 323° Northwest  Level Estimated
12:24AM -7.3758 -53.3118 323° Northwest  Level Estimated
12:25AM -7.2796 -53.3859 323° Northwest  Level Estimated
12:26AM -7.1834 -53.4600 323° Northwest  Level Estimated
12:27AM -7.0871 -53.5341 323° Northwest  Level Estimated
12:28AM -6.9908 -53.6081 323° Northwest  Level Estimated
12:29AM -6.8945 -53.6821 323° Northwest  Level Estimated
12:30AM -6.7983 -53.7561 323° Northwest  Level Estimated
12:31AM -6.7020 -53.8300 323° Northwest  Level Estimated
12:32AM -6.6056 -53.9039 323° Northwest  Level Estimated
12:33AM -6.5093 -53.9778 323° Northwest  Level Estimated
12:34AM -6.4130 -54.0517 323° Northwest  Level Estimated
12:35AM -6.3167 -54.1255 323° Northwest  Level Estimated
12:36AM -6.2203 -54.1993 323° Northwest  Level Estimated
12:37AM -6.1239 -54.2730 323° Northwest  Level Estimated
12:38AM -6.0276 -54.3468 323° Northwest  Level Estimated
12:39AM -5.9312 -54.4205 323° Northwest  Level Estimated
12:40AM -5.8348 -54.4942 323° Northwest  Level Estimated
12:41AM -5.7384 -54.5678 323° Northwest  Level Estimated
12:42AM -5.6420 -54.6415 323° Northwest  Level Estimated
12:43AM -5.5455 -54.7151 323° Northwest  Level Estimated
12:44AM -5.4491 -54.7887 323° Northwest  Level Estimated
12:45AM -5.3527 -54.8623 323° Northwest  Level Estimated
12:46AM -5.2562 -54.9358 323° Northwest  Level Estimated
12:47AM -5.1598 -55.0093 323° Northwest  Level Estimated
12:48AM -5.0633 -55.0828 323° Northwest  Level Estimated
12:49AM -4.9668 -55.1563 323° Northwest  Level Estimated
12:50AM -4.8703 -55.2298 323° Northwest  Level Estimated
12:51AM -4.7738 -55.3032 323° Northwest  Level Estimated
12:52AM -4.6774 -55.3766 323° Northwest  Level Estimated
12:53AM -4.5808 -55.4500 323° Northwest  Level Estimated
12:54AM -4.4843 -55.5234 323° Northwest  Level Estimated
12:55AM -4.3878 -55.5967 323° Northwest  Level Estimated
12:56AM -4.2913 -55.6701 323° Northwest  Level Estimated
12:57AM -4.1947 -55.7434 323° Northwest  Level Estimated
12:58AM -4.0982 -55.8167 323° Northwest  Level Estimated
12:59AM -4.0016 -55.8899 323° Northwest  Level Estimated
01:00AM -3.9051 -55.9632 323° Northwest  Level Estimated
01:01AM -3.8085 -56.0365 323° Northwest  Level Estimated
01:02AM -3.7120 -56.1097 323° Northwest  Level Estimated
01:03AM -3.6154 -56.1829 323° Northwest  Level Estimated
01:04AM -3.5188 -56.2561 323° Northwest  Level Estimated
01:05AM -3.4222 -56.3293 323° Northwest  Level Estimated
01:06AM -3.3256 -56.4025 323° Northwest  Level Estimated
01:07AM -3.2290 -56.4756 323° Northwest  Level Estimated
01:08AM -3.1324 -56.5487 323° Northwest  Level Estimated
01:09AM -3.0358 -56.6219 323° Northwest  Level Estimated
01:10AM -2.9392 -56.6950 323° Northwest  Level Estimated
01:11AM -2.8426 -56.7681 323° Northwest  Level Estimated
01:12AM -2.7460 -56.8412 323° Northwest  Level Estimated
01:13AM -2.6493 -56.9142 323° Northwest  Level Estimated
01:14AM -2.5527 -56.9873 323° Northwest  Level Estimated
01:15AM -2.4561 -57.0604 323° Northwest  Level Estimated
01:16AM -2.3594 -57.1334 323° Northwest  Level Estimated
01:17AM -2.2628 -57.2064 323° Northwest  Level Estimated
01:18AM -2.1662 -57.2795 323° Northwest  Level Estimated
01:19AM -2.0695 -57.3525 323° Northwest  Level Estimated
01:20AM -1.9728 -57.4255 323° Northwest  Level Estimated
01:21AM -1.8762 -57.4985 323° Northwest  Level Estimated
01:22AM -1.7795 -57.5715 323° Northwest  Level Estimated
01:23AM -1.6829 -57.6445 323° Northwest  Level Estimated
01:24AM -1.5862 -57.7174 323° Northwest  Level Estimated
01:25AM -1.4895 -57.7904 323° Northwest  Level Estimated
01:26AM -1.3929 -57.8633 323° Northwest  Level Estimated
01:27AM -1.2962 -57.9363 323° Northwest  Level Estimated
01:28AM -1.1995 -58.0093 323° Northwest  Level Estimated
01:29AM -1.1028 -58.0822 323° Northwest  Level Estimated
01:30AM -1.0062 -58.1551 323° Northwest  Level Estimated
01:31AM -0.9095 -58.2281 323° Northwest  Level Estimated
01:32AM -0.8128 -58.3010 323° Northwest  Level Estimated
01:33AM -0.7161 -58.3739 323° Northwest  Level Estimated
01:34AM -0.6194 -58.4469 323° Northwest  Level Estimated
01:35AM -0.5228 -58.5198 323° Northwest  Level Estimated
01:36AM -0.4261 -58.5927 323° Northwest  Level Estimated
01:37AM -0.3294 -58.6656 323° Northwest  Level Estimated
01:38AM -0.2327 -58.7385 323° Northwest  Level Estimated
01:39AM -0.1360 -58.8115 323° Northwest  Level Estimated
01:40AM -0.0393 -58.8844 323° Northwest  Level Estimated
01:41AM 0.0574 -58.9573 323° Northwest  Level Estimated
01:42AM 0.1541 -59.0302 323° Northwest  Level Estimated
01:43AM 0.2508 -59.1031 323° Northwest  Level Estimated
01:44AM 0.3474 -59.1761 323° Northwest  Level Estimated
01:45AM 0.4441 -59.2490 323° Northwest  Level Estimated
01:46AM 0.5408 -59.3219 323° Northwest  Level Estimated
01:47AM 0.6375 -59.3948 323° Northwest  Level Estimated
01:48AM 0.7342 -59.4678 323° Northwest  Level Estimated
01:49AM 0.8309 -59.5407 323° Northwest  Level Estimated
01:50AM 0.9275 -59.6136 323° Northwest  Level Estimated
01:51AM 1.0242 -59.6866 323° Northwest  Level Estimated
01:52AM 1.1209 -59.7595 323° Northwest  Level Estimated
01:53AM 1.2176 -59.8325 323° Northwest  Level Estimated
01:54AM 1.3142 -59.9054 323° Northwest  Level Estimated
01:55AM 1.4109 -59.9784 323° Northwest  Level Estimated
01:56AM 1.5076 -60.0513 323° Northwest  Level Estimated
01:57AM 1.6043 -60.1243 323° Northwest  Level Estimated
01:58AM 1.7009 -60.1973 323° Northwest  Level Estimated
01:59AM 1.7976 -60.2702 323° Northwest  Level Estimated
02:00AM 1.8942 -60.3432 323° Northwest  Level Estimated
02:01AM 1.9909 -60.4162 323° Northwest  Level Estimated
02:02AM 2.0875 -60.4893 323° Northwest  Level Estimated
02:03AM 2.1842 -60.5623 323° Northwest  Level Estimated
02:04AM 2.2808 -60.6353 323° Northwest  Level Estimated
02:05AM 2.3775 -60.7083 323° Northwest  Level Estimated
02:06AM 2.4741 -60.7814 323° Northwest  Level Estimated
02:07AM 2.5708 -60.8545 323° Northwest  Level Estimated
02:08AM 2.6674 -60.9275 323° Northwest  Level Estimated
02:09AM 2.7640 -61.0006 323° Northwest  Level Estimated
02:10AM 2.8606 -61.0737 323° Northwest  Level Estimated
02:11AM 2.9573 -61.1468 323° Northwest  Level Estimated
02:12AM 3.0539 -61.2199 323° Northwest  Level Estimated
02:13AM 3.1505 -61.2930 323° Northwest  Level Estimated
02:14AM 3.2471 -61.3662 323° Northwest  Level Estimated
02:15AM 3.3437 -61.4393 323° Northwest  Level Estimated
02:16AM 3.4403 -61.5125 323° Northwest  Level Estimated
02:17AM 3.5369 -61.5857 323° Northwest  Level Estimated
02:18AM 3.6334 -61.6589 323° Northwest  Level Estimated
02:19AM 3.7300 -61.7321 323° Northwest  Level Estimated
02:20AM 3.8266 -61.8054 323° Northwest  Level Estimated
02:21AM 3.9231 -61.8786 323° Northwest  Level Estimated
02:22AM 4.0197 -61.9519 323° Northwest  Level Estimated
02:23AM 4.1162 -62.0252 323° Northwest  Level Estimated
02:24AM 4.2128 -62.0984 323° Northwest  Level Estimated
02:25AM 4.3093 -62.1718 323° Northwest  Level Estimated
02:26AM 4.4058 -62.2451 323° Northwest  Level Estimated
02:27AM 4.5024 -62.3185 323° Northwest  Level Estimated
02:28AM 4.5989 -62.3918 323° Northwest  Level Estimated
02:29AM 4.6954 -62.4652 323° Northwest  Level Estimated
02:30AM 4.7919 -62.5387 323° Northwest  Level Estimated
02:31AM 4.8884 -62.6121 323° Northwest  Level Estimated
02:32AM 4.9848 -62.6856 323° Northwest  Level Estimated
02:33AM 5.0813 -62.7590 323° Northwest  Level Estimated
02:34AM 5.1778 -62.8326 323° Northwest  Level Estimated
02:35AM 5.2743 -62.9061 323° Northwest  Level Estimated
02:36AM 5.3707 -62.9796 323° Northwest  Level Estimated
02:37AM 5.4671 -63.0532 323° Northwest  Level Estimated
02:38AM 5.5636 -63.1268 323° Northwest  Level Estimated
02:39AM 5.6600 -63.2004 323° Northwest  Level Estimated
02:40AM 5.7564 -63.2741 323° Northwest  Level Estimated
02:41AM 5.8528 -63.3477 323° Northwest  Level Estimated
02:42AM 5.9492 -63.4214 323° Northwest  Level Estimated
02:43AM 6.0456 -63.4951 323° Northwest  Level Estimated
02:44AM 6.1419 -63.5689 323° Northwest  Level Estimated
02:45AM 6.2383 -63.6427 323° Northwest  Level Estimated
02:46AM 6.3347 -63.7165 323° Northwest  Level Estimated
02:47AM 6.4310 -63.7903 323° Northwest  Level Estimated
02:48AM 6.5273 -63.8642 323° Northwest  Level Estimated
02:49AM 6.6229 -63.9375 323° Northwest  Level Estimated
02:50AM 6.7185 -64.0108 323° Northwest  Level Estimated
02:51AM 6.8141 -64.0842 323° Northwest  Level Estimated
02:52AM 6.9097 -64.1577 323° Northwest  Level Estimated
02:53AM 7.0052 -64.2311 323° Northwest  Level Estimated
02:54AM 7.1008 -64.3046 323° Northwest  Level Estimated
02:55AM 7.1963 -64.3781 323° Northwest  Level Estimated
02:56AM 7.2918 -64.4516 323° Northwest  Level Estimated
02:57AM 7.3873 -64.5252 323° Northwest  Level Estimated
02:57AM 11.8180 -62.0220 323° Northwest 472 543 36,000  Level FlightAware
02:58AM 7.4828 -64.5988 323° Northwest  Level Estimated
02:59AM 7.5783 -64.6724 323° Northwest  Level Estimated
02:59AM 11.9450 -62.1060 327° Northwest 472 543 36,000  Level FlightAware
02:59AM 12.0250 -62.1580 328° Northwest 469 540 36,000  Level FlightAware
03:00AM 11.9680 -62.1210 148° Southeast 469 540 36,000  Level FlightAware
03:01AM 12.0300 -62.1620 327° Northwest 469 540 36,000  Level FlightAware
03:01AM 12.2610 -62.3140 327° Northwest 467 537 36,000  Level FlightAware
03:02AM 12.3330 -62.3610 327° Northwest 466 536 36,000  Level FlightAware
03:03AM 12.4340 -62.4280 327° Northwest 467 537 36,000  Level FlightAware
03:04AM 12.3180 -62.3520 147° Southeast 467 537 36,000  Level FlightAware
03:04AM 12.5900 -62.5310 327° Northwest 469 540 36,000  Level FlightAware
03:05AM 12.6700 -62.5840 327° Northwest 469 540 36,000  Level FlightAware
03:06AM 12.6340 -62.5600 147° Southeast 469 540 36,000  Level FlightAware
03:07AM 12.8350 -62.6930 327° Northwest 469 540 36,000  Level FlightAware
03:08AM 12.7370 -62.6290 148° Southeast 469 540 36,000  Level FlightAware
03:08AM 13.0190 -62.8160 327° Northwest 466 536 36,000  Level FlightAware
03:09AM 13.1090 -62.8750 327° Northwest 466 536 36,000  Level FlightAware
03:10AM 13.1800 -62.9230 327° Northwest 466 536 36,000  Level FlightAware
03:11AM 13.2500 -62.9700 327° Northwest 465 535 36,000  Level FlightAware
03:11AM 13.3350 -63.0260 327° Northwest 463 533 36,000  Level FlightAware
03:12AM 13.4070 -63.0740 327° Northwest 462 532 36,000  Level FlightAware
03:13AM 13.4610 -63.1100 327° Northwest 462 532 36,000  Level FlightAware
03:13AM 13.5340 -63.1610 326° Northwest 462 532 36,000  Level FlightAware
03:14AM 13.6280 -63.2220 328° Northwest 458 527 36,000  Level FlightAware
03:15AM 13.7030 -63.2720 327° Northwest 457 526 36,000  Level FlightAware
03:15AM 13.7830 -63.3250 327° Northwest 457 526 36,000  Level FlightAware
03:16AM 13.8530 -63.3720 327° Northwest 456 525 36,000  Level FlightAware
03:17AM 13.9300 -63.4240 327° Northwest 455 524 36,000  Level FlightAware
03:18AM 14.0010 -63.4710 327° Northwest 455 524 36,000  Level FlightAware
03:18AM 14.0820 -63.5260 327° Northwest 454 522 36,000  Level FlightAware
03:19AM 14.1370 -63.5630 327° Northwest 454 522 36,000  Level FlightAware
03:20AM 14.2170 -63.6170 327° Northwest 454 522 36,000  Level FlightAware
03:20AM 14.2890 -63.6660 327° Northwest 453 521 36,000  Level FlightAware
03:21AM 14.3710 -63.7210 327° Northwest 453 521 36,000  Level FlightAware
03:22AM 14.4420 -63.7690 327° Northwest 452 520 36,000  Level FlightAware
03:22AM 14.5120 -63.8160 327° Northwest 451 519 36,000  Level FlightAware
03:23AM 14.5770 -63.8600 327° Northwest 448 516 36,000  Level FlightAware
03:24AM 14.6950 -63.9390 327° Northwest 445 512 36,000  Level FlightAware
03:25AM 14.7550 -63.9800 327° Northwest 444 511 36,000  Level FlightAware
03:25AM 14.8260 -64.0290 326° Northwest 444 511 36,000  Level FlightAware
03:26AM 14.8840 -64.0690 326° Northwest 444 511 36,000  Level FlightAware
03:27AM 14.9850 -64.1360 327° Northwest 443 510 36,000  Level FlightAware
03:29AM 15.1250 -64.2380 325° Northwest 443 510 36,000  Level FlightAware
03:29AM 15.1820 -64.2790 325° Northwest 443 510 36,000  Level FlightAware
03:30AM 15.2390 -64.3210 325° Northwest 443 510 36,000  Level FlightAware
03:31AM 15.3100 -64.3720 325° Northwest 443 510 36,000  Level FlightAware
03:31AM 15.3670 -64.4140 325° Northwest 443 510 36,000  Level FlightAware
03:32AM 15.4240 -64.4550 325° Northwest 443 510 36,000  Level FlightAware
03:33AM 15.4820 -64.4970 325° Northwest 443 510 36,000  Level FlightAware
03:33AM 15.5390 -64.5380 325° Northwest 443 510 36,000  Level FlightAware
03:34AM 15.6100 -64.5900 325° Northwest 443 510 36,000  Level FlightAware
03:35AM 15.6670 -64.6320 325° Northwest 443 510 36,000  Level FlightAware
03:36AM 15.7240 -64.6730 325° Northwest 443 510 36,000  Level FlightAware
03:36AM 15.7810 -64.7150 325° Northwest 443 510 36,000  Level FlightAware
03:37AM 15.8380 -64.7560 325° Northwest 443 510 36,000  Level FlightAware
03:38AM 16.0500 -65.0333 325° Northwest 460 529 36,000  Level San Juan Center
03:39AM 16.1500 -65.1000 327° Northwest 450 518 36,000  Level San Juan Center
03:40AM 16.2333 -65.1833 316° Northwest 430 495 36,000  Level San Juan Center
03:41AM 16.3333 -65.2500 327° Northwest 420 483 36,000  Level San Juan Center
03:47AM 16.9260 -65.7590 327° Northwest 428 493 36,000  Level FlightAware
03:48AM 16.9730 -65.8010 319° Northwest 427 491 36,000  Level FlightAware
03:49AM 17.0250 -65.8460 320° Northwest 427 491 36,000  Level FlightAware
03:49AM 17.0890 -65.9020 320° Northwest 427 491 36,000  Level FlightAware
03:50AM 17.1670 -65.9630 323° Northwest 424 488 36,000  Level FlightAware
03:51AM 17.2250 -66.0150 319° Northwest 424 488 36,000  Level FlightAware
03:51AM 17.3030 -66.0800 321° Northwest 424 488 36,000  Level FlightAware
03:52AM 17.3680 -66.1350 321° Northwest 423 487 36,000  Level FlightAware
03:53AM 17.4250 -66.1840 321° Northwest 423 487 36,000  Level FlightAware
03:53AM 17.4830 -66.2350 320° Northwest 423 487 36,000  Level FlightAware
03:54AM 17.5340 -66.2800 320° Northwest 423 487 36,000  Level FlightAware
03:55AM 17.6280 -66.3580 322° Northwest 422 486 36,000  Level FlightAware
03:56AM 17.6880 -66.4090 321° Northwest 422 486 36,000  Level FlightAware
03:56AM 17.7580 -66.4690 321° Northwest 421 484 36,000  Level FlightAware
03:57AM 17.8070 -66.5110 321° Northwest 420 483 36,000  Level FlightAware
03:58AM 17.8840 -66.5780 320° Northwest 421 484 36,000  Level FlightAware
03:58AM 17.9450 -66.6300 321° Northwest 420 483 36,000  Level FlightAware
03:59AM 18.0040 -66.6810 321° Northwest 420 483 36,000  Level FlightAware
04:00AM 18.0740 -66.7410 321° Northwest 420 483 36,000  Level FlightAware
04:01AM 18.1340 -66.7930 321° Northwest 420 483 36,000  Level FlightAware
04:01AM 18.2010 -66.8510 321° Northwest 420 483 36,000  Level FlightAware
04:02AM 18.2600 -66.9020 321° Northwest 420 483 36,000  Level FlightAware
04:03AM 18.3210 -66.9550 320° Northwest 420 483 36,000  Level FlightAware
04:03AM 18.3900 -67.0140 321° Northwest 420 483 36,000  Level FlightAware
04:04AM 18.4500 -67.0660 321° Northwest 420 483 36,000  Level FlightAware
04:05AM 18.5110 -67.1270 317° Northwest 415 478 36,000  Level FlightAware
04:05AM 18.5470 -67.1730 310° West 414 476 36,000  Level FlightAware
04:06AM 18.5940 -67.2360 308° West 414 476 36,000  Level FlightAware
04:07AM 18.6440 -67.3040 308° West 414 476 36,000  Level FlightAware
04:08AM 18.6840 -67.3580 308° West 414 476 36,000  Level FlightAware
04:08AM 18.7240 -67.4130 308° West 414 476 36,000  Level FlightAware
04:09AM 18.7640 -67.4670 308° West 414 476 36,000  Level FlightAware
04:10AM 18.8040 -67.5210 308° West 414 476 36,000  Level FlightAware
04:10AM 18.9130 -67.6600 310° West 415 478 36,000  Level FlightAware
04:11AM 18.9690 -67.7350 308° West 415 478 36,000  Level FlightAware
04:12AM 19.0090 -67.7890 308° West 415 478 36,000  Level FlightAware
04:13AM 19.0590 -67.8570 308° West 415 478 36,000  Level FlightAware
04:13AM 19.0990 -67.9120 308° West 415 478 36,000  Level FlightAware
04:14AM 19.1400 -67.9660 309° West 415 478 36,000  Level FlightAware
04:15AM 19.1800 -68.0210 308° West 415 478 36,000  Level FlightAware
04:15AM 19.2200 -68.0750 308° West 415 478 36,000  Level FlightAware
04:16AM 19.2700 -68.1430 308° West 415 478 36,000  Level FlightAware
04:17AM 19.3100 -68.1980 308° West 415 478 36,000  Level FlightAware
04:18AM 19.3510 -68.2520 309° West 415 478 36,000  Level FlightAware
04:18AM 19.3910 -68.3070 308° West 415 478 36,000  Level FlightAware
04:19AM 19.4310 -68.3610 308° West 415 478 36,000  Level FlightAware
04:20AM 19.4810 -68.4300 308° West 415 478 36,000  Level FlightAware
04:20AM 19.5210 -68.4840 308° West 415 478 36,000 240 Level FlightAware
04:23AM 19.6274 -68.7308 295° West  Level FlightAware Approximate
04:24AM 19.6771 -68.8466 295° West  Level FlightAware Approximate
04:25AM 19.7268 -68.9625 295° West  Level FlightAware Approximate
04:26AM 19.7779 -69.0813 302° West  Level FlightAware Approximate
04:27AM 19.8409 -69.1896 302° West  Level FlightAware Approximate
04:27AM 19.9169 -69.2725 302° West 408 470 38,000  Level Miami Center
04:28AM 19.9039 -69.2981 302° West  Level FlightAware Approximate
04:29AM 19.9668 -69.4066 302° West  Level FlightAware Approximate
04:29AM 20.0348 -69.4724 302° West  Level Estimated
04:30AM 20.0296 -69.5152 302° West  Level FlightAware Approximate
04:31AM 20.0924 -69.6239 302° West  Level FlightAware Approximate
04:32AM 20.1551 -69.7327 302° West  Level FlightAware Approximate
04:34AM 20.3244 -69.9789 302° West 402 463 38,000  Level Miami Center
04:35AM 20.3808 -70.0778 301° West 397 457 38,000  Level Miami Center
04:36AM 20.4786 -70.2314 302° West  Level Estimated
04:36AM 20.4372 -70.1789 301° West 397 457 38,000  Level Miami Center
04:37AM 20.5417 -70.3402 302° West  Level Estimated
04:38AM 20.6047 -70.4491 302° West  Level Estimated
04:38AM 20.5453 -70.3681 301° West 397 457 38,000  Level Miami Center
04:39AM 20.6677 -70.5580 302° West  Level Estimated
04:40AM 20.6622 -70.5731 301° West 402 463 38,000  Level Miami Center
04:42AM 20.7755 -70.7768 301° West  Level FlightAware Approximate
04:44AM 20.8908 -70.9817 301° West 402 463 38,000  Level Miami Center
04:46AM 21.0070 -71.1839 302° West  Level Estimated
04:49AM 21.2021 -71.5507 301° West  Level FlightAware Approximate
04:49AM 21.1786 -71.4961 301° West 409 471 38,000  Level Miami Center
04:51AM 21.2902 -71.7017 300° West  Level FlightAware Approximate
04:52AM 21.3475 -71.7989 300° West 409 471 38,000  Level Miami Center
04:53AM 21.4445 -71.9520 302° West  Level Estimated
04:54AM 21.5067 -72.0621 301° West  Level Estimated
04:54AM 21.4647 -72.0083 301° West 398 458 38,100  Level Miami Center
04:55AM 21.5181 -72.1114 299° West 398 458 38,000 -60 Descending Miami Center
04:56AM 21.5733 -72.2119 301° West 392 451 38,000  Level Miami Center
04:58AM 21.6799 -72.4137 300° West  Level FlightAware Approximate
05:00AM 21.7917 -72.6133 300° West 387 445 38,000  Level Miami Center
05:02AM 21.9064 -72.8178 301° West  Level Estimated
05:03AM 21.9564 -72.9169 301° West 387 445 38,000  Level Miami Center
05:05AM 22.0921 -73.2014 300° West  Level FlightAware Approximate
05:05AM 22.0607 -73.1225 299° West  Level FlightAware Approximate
05:07AM 22.1792 -73.3225 300° West 387 445 38,000  Level Miami Center
05:08AM 22.2317 -73.4244 299° West 387 445 38,000  Level Miami Center
05:09AM 22.2797 -73.5242 298° West 387 445 38,000  Level Miami Center
05:11AM 22.3899 -73.7309 300° West  Level FlightAware Approximate
05:12AM 22.4792 -73.9061 300° West  Level FlightAware Approximate
05:12AM 22.4450 -73.8322 300° West 392 451 38,000  Level Miami Center
05:13AM 22.4972 -73.9342 299° West 392 451 38,000  Level Miami Center
05:15AM 22.6060 -74.1396 300° West  Level FlightAware Approximate
05:18AM 22.7672 -74.4464 299° West 387 445 38,000  Level Miami Center
05:19AM 22.8211 -74.5467 300° West 387 445 38,000  Level Miami Center
05:20AM 22.8728 -74.6494 299° West 387 445 38,000  Level Miami Center
05:22AM 23.0189 -74.9272 300° West  Level FlightAware Approximate
05:22AM 22.9825 -74.8499 301° West  Level Estimated
05:23AM 23.0776 -75.0401 299° West  Level FlightAware Approximate
05:23AM 23.0358 -74.9558 301° West 387 445 38,000  Level Miami Center
05:24AM 23.0892 -75.0589 299° West 387 445 38,000  Level Miami Center
05:26AM 23.1943 -75.2626 299° West  Level FlightAware Approximate
05:27AM 23.2514 -75.3711 299° West 387 445 38,000  Level Miami Center
05:28AM 23.3025 -75.4744 298° West 387 445 38,000  Level Miami Center
05:29AM 23.3558 -75.5781 299° West 387 445 38,000  Level Miami Center
05:30AM 23.4067 -75.6794 299° West 387 445 38,000  Level Miami Center
05:31AM 23.4639 -75.7919 299° West 402 463 38,000  Level Miami Center
05:32AM 23.5147 -75.8914 299° West 412 474 38,000  Level Miami Center
05:33AM 23.5678 -75.9928 300° West 412 474 38,000  Level Miami Center
05:34AM 23.6206 -76.0969 299° West 400 460 38,000  Level Miami Center
05:35AM 23.6753 -76.2031 299° West 395 455 38,000  Level Miami Center
05:36AM 23.7281 -76.3072 299° West 395 455 38,000  Level Miami Center
05:37AM 23.7806 -76.4139 298° West 395 455 38,000  Level Miami Center
05:38AM 23.8331 -76.5158 299° West 395 455 38,000  Level Miami Center
05:40AM 23.9381 -76.7269 299° West 395 455 38,000  Level Miami Center
05:42AM 24.0406 -76.9361 298° West 390 449 38,000  Level Miami Center
05:43AM 24.0928 -77.0386 299° West 390 449 38,000  Level Miami Center
05:44AM 24.1447 -77.1458 298° West 385 443 38,000  Level Miami Center
05:45AM 24.1967 -77.2531 298° West 391 450 38,000  Level Miami Center
05:46AM 24.2486 -77.3581 298° West 391 450 38,000  Level Miami Center
05:48AM 24.3533 -77.5690 299° West  Level FlightAware Approximate
05:51AM 24.5072 -77.8844 295° West 386 444 38,000  Level Miami Center
05:52AM 24.5586 -77.9897 298° West 386 444 38,000  Level Miami Center
05:53AM 24.6122 -78.0956 299° West 386 444 38,000  Level Miami Center
05:55AM 24.7462 -78.3797 295° West  Level FlightAware Approximate
05:55AM 24.7147 -78.3092 298° West 391 450 38,000  Level Miami Center
05:56AM 24.7971 -78.4986 295° West  Level FlightAware Approximate
05:57AM 24.8211 -78.5211 299° West 391 450 38,000  Level Miami Center
05:59AM 24.9189 -78.7333 297° West 391 450 34,700 -2,100 Descending Miami Center
06:00AM 24.9739 -78.8442 299° West 396 456 31,800 -2,580 Descending Miami Center
06:02AM 25.0794 -79.0639 298° West 390 449 27,100 -2,400 Descending Miami Center
06:03AM 25.1261 -79.1678 296° West 384 442 24,700 -2,280 Descending Miami Center
06:08AM 25.3790 -79.7000 296° West 330 380 12,500 -2,040 Descending FlightAware
06:10AM 25.4510 -79.8180 304° West 306 352 10,800 -1,080 Descending FlightAware
06:11AM 25.5060 -79.9010 306° West 272 313 9,700 -840 Descending FlightAware
06:12AM 25.5560 -79.9770 306° West 258 297 8,900 -360 Descending FlightAware
06:13AM 25.6070 -80.0540 306° West 260 299 8,900  Level FlightAware
06:14AM 25.6630 -80.1440 305° West 262 302 8,900 -600 Level FlightAware
06:15AM 25.6820 -80.2140 287° West 256 295 7,600 -2,100 Descending FlightAware
06:17AM 25.7090 -80.3200 286° West 244 281 4,000 -2,340 Descending FlightAware
06:17AM 25.7080 -80.3610 268° West 238 274 3,200 -960 Descending FlightAware
06:18AM 25.7070 -80.4040 269° West 215 247 2,900 -180 Descending FlightAware
06:19AM 25.7240 -80.4630 288° West 185 213 2,900 -420 Level FlightAware
06:20AM 25.7800 -80.4310 27° Northeast 177 204 1,900 -780 Descending FlightAware
06:22AM 25.7840 -80.3710 86° East 137 158 900 -660 Descending FlightAware
06:23AM 25.7850 -80.3140 89° East 139 160 200 -540 Descending FlightAware